Time;durP1;ratioP1;P1;durP2;ratioP2;P2;SDS_P1;SDS_P2;PMS_P1;PMS_P2;Temp;Humidity;BMP_temperature;BMP_pressure;BME280_temperature;BME280_humidity;BME280_pressure;Samples;Min_cycle;Max_cycle;Signal;HPM_P1;HPM_P2
2022/11/28 00:01:32;;;;;;;1.08;0.50;;;;;;;15.02;100.00;98827.44;7394235;19;20463;-61
2022/11/28 00:03:59;;;;;;;4.70;1.00;;;;;;;14.84;100.00;98830.22;7393236;19;20463;-61
2022/11/28 00:06:26;;;;;;;0.38;0.38;;;;;;;14.95;100.00;98830.84;7392458;19;20028;-62
2022/11/28 00:08:53;;;;;;;4.97;1.23;;;;;;;14.93;100.00;98833.41;7391471;19;20017;-61
2022/11/28 00:11:19;;;;;;;4.03;1.25;;;;;;;14.77;100.00;98831.56;7392126;19;20011;-61
2022/11/28 00:13:46;;;;;;;0.52;0.47;;;;;;;14.65;100.00;98835.03;7392109;19;20018;-61
2022/11/28 00:16:20;;;;;;;0.30;0.30;;;;;;;14.90;100.00;98833.72;7391391;19;20011;-61
2022/11/28 00:18:47;;;;;;;1.35;0.77;;;;;;;15.02;100.00;98835.84;7391523;19;20074;-61
2022/11/28 00:21:14;;;;;;;0.60;0.60;;;;;;;15.10;100.00;98836.75;7391694;19;20010;-61
2022/11/28 00:23:42;;;;;;;0.40;0.40;;;;;;;15.08;100.00;98839.31;7391051;19;20011;-61
2022/11/28 00:26:20;;;;;;;1.23;1.10;;;;;;;14.92;100.00;98822.72;7391220;19;20018;-61
2022/11/28 00:28:47;;;;;;;2.10;0.57;;;;;;;15.30;100.00;98827.03;7391824;19;20081;-62
2022/11/28 00:31:16;;;;;;;0.40;0.40;;;;;;;15.38;100.00;98825.09;7392349;19;20472;-61
2022/11/28 00:33:42;;;;;;;2.47;0.52;;;;;;;14.92;100.00;98815.06;7389843;19;20111;-61
2022/11/28 00:36:09;;;;;;;0.75;0.73;;;;;;;15.49;100.00;98810.16;7391405;19;20010;-61
2022/11/28 00:38:35;;;;;;;2.58;0.35;;;;;;;15.46;100.00;98811.25;7391741;19;20121;-61
2022/11/28 00:41:12;;;;;;;0.17;0.10;;;;;;;15.35;100.00;98817.78;7391645;19;20018;-61
2022/11/28 00:43:39;;;;;;;2.72;0.70;;;;;;;15.10;100.00;98817.09;7389043;19;20014;-61
2022/11/28 00:46:06;;;;;;;0.55;0.55;;;;;;;15.01;100.00;98814.69;7390255;19;20010;-61
2022/11/28 00:48:33;;;;;;;7.43;2.20;;;;;;;15.16;100.00;98817.00;7390296;19;20006;-61
2022/11/28 00:51:12;;;;;;;4.97;0.82;;;;;;;15.20;100.00;98812.63;7391567;19;20102;-61
2022/11/28 00:53:41;;;;;;;1.75;1.10;;;;;;;15.42;100.00;98810.78;7391919;19;20599;-61
2022/11/28 00:56:12;;;;;;;0.15;0.15;;;;;;;15.47;100.00;98807.16;7390880;19;20021;-61
2022/11/28 00:58:39;;;;;;;;;;;;;;;15.54;100.00;98803.72;7391719;19;20031;-61
2022/11/28 01:01:15;;;;;;;0.47;0.45;;;;;;;15.54;100.00;98803.72;7390943;19;19915;-61
2022/11/28 01:03:42;;;;;;;3.42;0.73;;;;;;;15.64;100.00;98799.22;7391137;19;20352;-62
2022/11/28 01:06:09;;;;;;;0.73;0.38;;;;;;;15.70;100.00;98795.00;7390720;19;20010;-61
2022/11/28 01:08:36;;;;;;;0.95;0.73;;;;;;;15.57;100.00;98794.25;7394377;19;20401;-61
2022/11/28 01:11:03;;;;;;;1.38;0.73;;;;;;;15.48;100.00;98787.00;7390988;19;20102;-61
2022/11/28 01:13:29;;;;;;;1.75;0.25;;;;;;;15.16;100.00;98792.53;7390158;19;20018;-62
2022/11/28 01:15:57;;;;;;;0.35;0.30;;;;;;;15.40;100.00;98791.66;7392387;19;20634;-61
2022/11/28 01:18:23;;;;;;;0.30;0.30;;;;;;;15.14;100.00;98786.72;7387850;19;20474;-61
2022/11/28 01:20:49;;;;;;;0.80;0.40;;;;;;;15.35;100.00;98777.72;7389842;19;20410;-61
2022/11/28 01:23:17;;;;;;;7.35;1.40;;;;;;;15.65;100.00;98790.28;7389992;19;20011;-61
2022/11/28 01:25:43;;;;;;;0.93;0.57;;;;;;;15.62;100.00;98788.53;7390692;19;20021;-61
2022/11/28 01:28:09;;;;;;;1.38;0.50;;;;;;;15.91;100.00;98778.31;7390249;19;20077;-61
2022/11/28 01:30:35;;;;;;;0.63;0.50;;;;;;;16.12;100.00;98784.81;7390063;19;20633;-61
2022/11/28 01:33:02;;;;;;;2.63;0.65;;;;;;;16.32;100.00;98775.00;7388729;19;20011;-61
2022/11/28 01:35:28;;;;;;;1.85;1.50;;;;;;;15.46;100.00;98786.00;7389679;19;20035;-61
2022/11/28 01:37:54;;;;;;;11.38;1.65;;;;;;;15.74;100.00;98775.06;7387163;19;20010;-61
2022/11/28 01:40:20;;;;;;;0.52;0.40;;;;;;;15.68;100.00;98766.00;7389521;19;20015;-61
2022/11/28 01:42:46;;;;;;;0.57;0.38;;;;;;;15.69;100.00;98756.25;7393977;19;20064;-62
2022/11/28 01:45:24;;;;;;;0.63;0.45;;;;;;;15.77;100.00;98762.75;7391546;19;20010;-62
2022/11/28 01:47:55;;;;;;;1.75;0.95;;;;;;;15.65;100.00;98764.25;7397028;19;20498;-61
2022/11/28 01:50:22;;;;;;;6.53;0.90;;;;;;;15.62;100.00;98768.13;7396322;19;20011;-61
2022/11/28 01:52:52;;;;;;;2.33;1.17;;;;;;;15.84;100.00;98767.72;7397489;19;20014;-61
2022/11/28 01:55:22;;;;;;;9.50;1.73;;;;;;;16.04;100.00;98769.91;7395973;19;20011;-61
2022/11/28 01:57:51;;;;;;;2.35;1.42;;;;;;;16.14;100.00;98765.38;7395260;19;20006;-61
2022/11/28 02:00:19;;;;;;;10.60;0.60;;;;;;;16.01;100.00;98761.78;7397007;19;20018;-61
2022/11/28 02:02:47;;;;;;;1.38;0.55;;;;;;;15.99;100.00;98767.97;7400910;19;20038;-61
2022/11/28 02:05:15;;;;;;;1.75;0.45;;;;;;;15.99;100.00;98767.97;7396114;19;20014;-61
2022/11/28 02:07:43;;;;;;;2.30;1.25;;;;;;;16.19;100.00;98764.50;7398752;19;20039;-61
2022/11/28 02:10:14;;;;;;;1.67;0.95;;;;;;;16.30;100.00;98775.53;7395968;19;20010;-62
2022/11/28 02:13:09;;;;;;;0.30;0.30;;;;;;;16.38;100.00;98779.19;7398181;19;20015;-61
2022/11/28 02:15:50;;;;;;;0.30;0.30;;;;;;;16.48;100.00;98780.25;7399025;19;20015;-61
2022/11/28 02:18:52;;;;;;;3.03;0.38;;;;;;;16.31;100.00;98777.03;7396168;19;20002;-61
2022/11/28 02:21:34;;;;;;;9.07;0.80;;;;;;;16.37;100.00;98766.44;7396999;19;20014;-61
2022/11/28 02:24:18;;;;;;;;;;;;;;;17.33;100.00;98772.28;7394122;19;20022;-61
2022/11/28 02:27:21;;;;;;;0.43;0.00;;;;;;;17.20;100.00;98769.50;7395477;19;19918;-61
2022/11/28 02:30:13;;;;;;;0.40;0.40;;;;;;;17.37;100.00;98764.22;7395907;19;20015;-61
2022/11/28 02:32:58;;;;;;;;;;;;;;;17.69;100.00;98755.56;7397117;19;20015;-61
2022/11/28 02:36:01;;;;;;;0.20;0.20;;;;;;;17.81;100.00;98753.94;7392560;19;19918;-61
2022/11/28 02:38:57;;;;;;;1.20;1.10;;;;;;;18.00;100.00;98754.44;7394204;19;20375;-61
2022/11/28 02:41:33;;;;;;;1.33;0.82;;;;;;;18.28;99.09;98750.88;7392210;19;20041;-61
2022/11/28 02:44:18;;;;;;;1.48;0.32;;;;;;;18.32;98.45;98740.00;7393628;19;20018;-61
2022/11/28 02:47:04;;;;;;;0.85;0.43;;;;;;;18.07;98.89;98757.34;7395092;19;20015;-61
2022/11/28 02:49:48;;;;;;;2.30;0.63;;;;;;;18.08;99.97;98744.75;7391783;19;20018;-61
2022/11/28 02:52:19;;;;;;;4.10;0.93;;;;;;;18.58;96.78;98745.44;7395394;19;20022;-61
2022/11/28 02:54:48;;;;;;;1.00;0.45;;;;;;;18.37;97.03;98748.28;7395141;19;20109;-61
2022/11/28 02:57:15;;;;;;;0.63;0.47;;;;;;;18.03;98.32;98747.72;7394803;19;20014;-61
2022/11/28 02:59:41;;;;;;;0.20;0.20;;;;;;;17.54;100.00;98759.00;7394500;19;20003;-61
2022/11/28 03:02:17;;;;;;;2.00;0.82;;;;;;;17.36;100.00;98752.25;7396634;19;20099;-61
2022/11/28 03:05:06;;;;;;;3.42;0.73;;;;;;;17.55;100.00;98754.88;7393854;19;20073;-61
2022/11/28 03:07:32;;;;;;;5.03;0.77;;;;;;;17.52;100.00;98755.97;7395910;19;20013;-61
2022/11/28 03:10:34;;;;;;;1.75;1.50;;;;;;;17.44;100.00;98755.88;7393556;19;20010;-61
2022/11/28 03:13:25;;;;;;;1.27;0.85;;;;;;;17.39;100.00;98747.56;7390217;19;20473;-61
2022/11/28 03:16:13;;;;;;;;;;;;;;;17.61;100.00;98746.25;7397039;19;20025;-61
2022/11/28 03:18:50;;;;;;;1.70;0.85;;;;;;;17.50;100.00;98736.03;7393711;19;19919;-61
2022/11/28 03:21:45;;;;;;;2.30;1.10;;;;;;;17.81;99.64;98740.63;7394986;19;20035;-61
2022/11/28 03:24:26;;;;;;;0.38;0.38;;;;;;;17.87;99.30;98735.59;7392725;19;20010;-61
2022/11/28 03:26:59;;;;;;;2.15;0.75;;;;;;;17.98;97.53;98740.94;7393412;19;20439;-61
2022/11/28 03:29:35;;;;;;;3.35;0.65;;;;;;;17.83;98.05;98740.81;7393349;19;20086;-61
2022/11/28 03:32:17;;;;;;;1.48;0.57;;;;;;;17.72;98.65;98741.13;7394855;19;20010;-61
2022/11/28 03:34:47;;;;;;;1.92;0.35;;;;;;;17.81;98.40;98737.81;7393193;19;20011;-61
2022/11/28 03:37:19;;;;;;;1.67;0.53;;;;;;;18.10;97.58;98736.47;7393459;19;20562;-61
2022/11/28 03:39:52;;;;;;;0.38;0.38;;;;;;;17.80;97.71;98733.47;7392881;19;20030;-61
2022/11/28 03:42:24;;;;;;;1.35;0.77;;;;;;;17.74;97.84;98738.50;7395867;19;20010;-61
2022/11/28 03:44:56;;;;;;;0.40;0.35;;;;;;;18.07;97.18;98737.59;7394728;19;20014;-61
2022/11/28 03:47:31;;;;;;;1.27;0.47;;;;;;;18.02;96.44;98741.31;7391927;19;20031;-61
2022/11/28 03:50:04;;;;;;;3.42;0.40;;;;;;;17.83;97.38;98735.19;7392356;19;20010;-61
2022/11/28 03:52:54;;;;;;;2.05;1.05;;;;;;;17.88;96.65;98739.94;7395395;19;20010;-61
2022/11/28 03:55:29;;;;;;;3.10;1.90;;;;;;;17.80;96.18;98736.28;7393024;19;20011;-61
2022/11/28 03:58:15;;;;;;;2.80;0.47;;;;;;;17.77;96.31;98734.59;7391730;19;20011;-61
2022/11/28 04:00:54;;;;;;;1.58;0.85;;;;;;;17.69;96.72;98747.88;7393325;19;20014;-61
2022/11/28 04:04:01;;;;;;;0.73;0.45;;;;;;;17.64;96.42;98745.94;7392867;19;20019;-61
2022/11/28 04:06:37;;;;;;;0.77;0.20;;;;;;;17.50;98.01;98750.13;7388528;19;20022;-61
2022/11/28 04:09:13;;;;;;;2.60;0.45;;;;;;;17.71;98.23;98744.50;7390578;19;20015;-61
2022/11/28 04:11:55;;;;;;;2.38;1.33;;;;;;;17.95;97.35;98746.91;7393477;19;20011;-61
2022/11/28 04:14:47;;;;;;;0.40;0.40;;;;;;;17.85;98.00;98743.84;7392569;19;20021;-61
2022/11/28 04:17:53;;;;;;;1.05;0.63;;;;;;;18.01;98.01;98745.47;7387682;19;20115;-61
2022/11/28 04:20:39;;;;;;;19.40;1.00;;;;;;;17.97;97.31;98747.88;7388231;19;20513;-61
2022/11/28 04:23:10;;;;;;;2.60;0.93;;;;;;;18.02;97.31;98755.41;7390414;19;20039;-61
2022/11/28 04:25:40;;;;;;;1.88;0.60;;;;;;;18.26;97.20;98757.06;7389319;19;20074;-61
2022/11/28 04:28:13;;;;;;;12.73;0.93;;;;;;;18.13;97.08;98766.38;7389554;19;20034;-61
2022/11/28 04:30:42;;;;;;;0.47;0.20;;;;;;;18.07;98.09;98765.78;7391780;19;20681;-61
2022/11/28 04:33:12;;;;;;;0.43;0.25;;;;;;;17.95;97.97;98770.19;7389627;19;20018;-61
2022/11/28 04:35:45;;;;;;;0.10;0.10;;;;;;;18.13;97.37;98766.38;7389560;19;20013;-61
2022/11/28 04:38:12;;;;;;;0.10;0.05;;;;;;;17.70;98.55;98766.25;7391357;19;20367;-61
2022/11/28 04:40:49;;;;;;;0.43;0.10;;;;;;;17.79;98.20;98773.47;7391782;19;20013;-61
2022/11/28 04:43:26;;;;;;;0.38;0.38;;;;;;;17.58;98.76;98769.91;7392079;19;20365;-61
2022/11/28 04:45:58;;;;;;;0.77;0.75;;;;;;;18.15;97.28;98765.81;7395092;19;20562;-61
2022/11/28 04:48:25;;;;;;;0.10;0.10;;;;;;;18.36;95.92;98769.34;7390242;19;20014;-61
2022/11/28 04:51:18;;;;;;;0.60;0.35;;;;;;;17.57;97.79;98762.75;7391576;19;20017;-61
2022/11/28 04:53:52;;;;;;;0.73;0.20;;;;;;;17.70;97.56;98771.88;7390082;19;20006;-61
2022/11/28 04:56:29;;;;;;;0.77;0.63;;;;;;;18.04;96.00;98766.88;7390829;19;20523;-61
2022/11/28 04:58:57;;;;;;;1.25;0.45;;;;;;;18.21;95.39;98768.50;7390749;19;20014;-61
2022/11/28 05:01:28;;;;;;;0.10;0.00;;;;;;;18.23;94.10;98765.88;7392382;19;20010;-61
2022/11/28 05:03:54;;;;;;;0.38;0.30;;;;;;;18.36;93.27;98763.72;7390559;19;20021;-61
2022/11/28 05:06:28;;;;;;;2.47;0.30;;;;;;;18.02;93.89;98758.22;7390690;19;20488;-61
2022/11/28 05:08:54;;;;;;;0.40;0.15;;;;;;;18.01;93.70;98759.56;7388492;19;20396;-61
2022/11/28 05:11:20;;;;;;;0.15;0.15;;;;;;;18.71;91.13;98770.69;7388690;19;20021;-61
2022/11/28 05:13:46;;;;;;;1.00;0.77;;;;;;;19.01;89.60;98759.50;7390741;19;20011;-61
2022/11/28 05:16:14;;;;;;;0.52;0.38;;;;;;;18.75;90.58;98754.16;7390182;19;20018;-61
2022/11/28 05:18:40;;;;;;;2.53;0.60;;;;;;;18.73;90.77;98762.41;7388577;19;20011;-61
2022/11/28 05:21:07;;;;;;;3.80;2.08;;;;;;;18.88;90.22;98762.47;7389130;19;20235;-61
2022/11/28 05:23:42;;;;;;;1.20;0.68;;;;;;;18.82;90.25;98765.44;7390657;19;20014;-61
2022/11/28 05:26:14;;;;;;;5.60;1.45;;;;;;;18.55;90.77;98766.28;7389814;19;20022;-61
2022/11/28 05:28:45;;;;;;;2.30;0.80;;;;;;;18.28;92.45;98757.25;7389209;19;20014;-61
2022/11/28 05:31:12;;;;;;;0.20;0.20;;;;;;;18.77;90.56;98749.47;7389929;19;20018;-62
2022/11/28 05:33:39;;;;;;;0.20;0.20;;;;;;;18.87;90.29;98760.94;7389586;19;20015;-61
2022/11/28 05:36:08;;;;;;;1.27;0.10;;;;;;;17.70;92.99;98749.34;7389560;19;20097;-62
2022/11/28 05:38:34;;;;;;;0.20;0.20;;;;;;;17.53;94.32;98749.03;7388950;19;20022;-62
2022/11/28 05:41:01;;;;;;;0.28;0.28;;;;;;;18.14;92.20;98742.53;7390930;19;20003;-62
2022/11/28 05:43:28;;;;;;;0.70;0.35;;;;;;;18.03;91.22;98745.66;7389301;19;20014;-62
2022/11/28 05:45:54;;;;;;;1.17;0.85;;;;;;;17.70;91.52;98751.41;7394202;19;20192;-62
2022/11/28 05:48:21;;;;;;;0.45;0.30;;;;;;;17.98;90.13;98749.38;7387408;19;20035;-62
2022/11/28 05:50:49;;;;;;;0.73;0.63;;;;;;;17.83;90.09;98757.72;7389679;19;20102;-62
2022/11/28 05:53:17;;;;;;;1.60;0.50;;;;;;;17.58;90.70;98753.00;7387949;19;20024;-62
2022/11/28 05:55:43;;;;;;;2.13;0.32;;;;;;;17.52;90.97;98761.59;7389450;19;20094;-62
2022/11/28 05:58:10;;;;;;;0.10;0.10;;;;;;;17.39;91.27;98764.44;7388544;19;20337;-61
2022/11/28 06:00:36;;;;;;;0.90;0.30;;;;;;;17.16;92.66;98757.84;7389566;19;20011;-62
2022/11/28 06:03:03;;;;;;;1.55;0.80;;;;;;;17.25;93.04;98760.94;7390389;19;20018;-61
2022/11/28 06:05:30;;;;;;;2.30;1.20;;;;;;;17.26;92.69;98767.34;7388422;19;20014;-61
2022/11/28 06:07:56;;;;;;;0.45;0.45;;;;;;;17.17;93.23;98762.91;7392196;19;20070;-61
2022/11/28 06:10:23;;;;;;;0.60;0.15;;;;;;;17.42;92.86;98768.97;7389096;19;20019;-62
2022/11/28 06:12:49;;;;;;;0.75;0.40;;;;;;;17.64;92.05;98774.09;7391889;19;20042;-62
2022/11/28 06:15:15;;;;;;;1.55;0.43;;;;;;;17.77;91.71;98778.88;7391750;19;20060;-62
2022/11/28 06:17:41;;;;;;;0.57;0.57;;;;;;;17.81;91.49;98785.69;7388439;19;20046;-62
2022/11/28 06:20:07;;;;;;;1.15;0.25;;;;;;;18.10;91.08;98798.47;7388681;19;20455;-62
2022/11/28 06:22:34;;;;;;;1.63;0.65;;;;;;;18.32;90.97;98790.75;7391074;19;20070;-62
2022/11/28 06:25:00;;;;;;;3.92;1.45;;;;;;;18.84;90.35;98793.84;7387195;19;20363;-62
2022/11/28 06:27:26;;;;;;;1.85;1.65;;;;;;;16.90;95.36;98797.31;7388666;19;20014;-61
2022/11/28 06:29:52;;;;;;;1.05;0.50;;;;;;;18.33;95.06;98797.88;7388526;19;20014;-61
2022/11/28 06:32:18;;;;;;;0.80;0.65;;;;;;;19.01;91.42;98799.00;7392169;19;20078;-61
2022/11/28 06:34:44;;;;;;;6.72;1.73;;;;;;;19.30;90.01;98797.56;7394806;19;20329;-62
2022/11/28 06:37:10;;;;;;;0.47;0.47;;;;;;;19.91;88.14;98786.34;7395926;19;20475;-62
2022/11/28 06:39:37;;;;;;;1.45;0.70;;;;;;;20.05;86.41;98787.69;7395015;19;20370;-61
2022/11/28 06:42:03;;;;;;;0.88;0.88;;;;;;;20.22;84.98;98782.22;7396691;19;20011;-62
2022/11/28 06:44:29;;;;;;;1.45;0.20;;;;;;;20.04;84.73;98794.63;7396631;19;20025;-61
2022/11/28 06:46:56;;;;;;;5.18;1.10;;;;;;;20.20;84.38;98790.47;7393586;19;20015;-62
2022/11/28 06:49:22;;;;;;;1.10;0.55;;;;;;;20.38;84.14;98786.50;7395012;19;20424;-62
2022/11/28 06:51:48;;;;;;;0.30;0.10;;;;;;;20.69;82.69;98779.44;7396522;19;20039;-62
2022/11/28 06:54:14;;;;;;;1.80;1.20;;;;;;;20.31;83.64;98785.19;7394604;19;20345;-62
2022/11/28 06:56:40;;;;;;;7.88;0.88;;;;;;;19.58;86.26;98788.97;7394584;19;20020;-62
2022/11/28 06:59:06;;;;;;;0.80;0.75;;;;;;;20.19;84.23;98786.13;7394849;19;20010;-61
2022/11/28 07:01:33;;;;;;;2.60;1.08;;;;;;;20.25;83.48;98783.88;7395462;19;20021;-61
2022/11/28 07:04:00;;;;;;;6.43;0.50;;;;;;;20.23;83.28;98783.72;7393714;19;20025;-61
2022/11/28 07:06:27;;;;;;;2.83;1.92;;;;;;;20.10;83.06;98781.81;7393862;19;20019;-62
2022/11/28 07:08:56;;;;;;;2.45;1.30;;;;;;;19.48;85.25;98788.03;7394430;19;20013;-61
2022/11/28 07:11:28;;;;;;;0.38;0.30;;;;;;;19.18;85.34;98793.59;7395949;19;20463;-61
2022/11/28 07:13:55;;;;;;;6.53;1.63;;;;;;;19.38;85.22;98792.72;7394530;19;20510;-62
2022/11/28 07:16:30;;;;;;;0.60;0.60;;;;;;;19.23;84.80;98795.47;7393573;19;20010;-61
2022/11/28 07:18:57;;;;;;;5.10;1.58;;;;;;;19.26;84.74;98802.84;7393302;19;20021;-61
2022/11/28 07:21:23;;;;;;;0.60;0.40;;;;;;;19.32;84.73;98806.22;7395301;19;20022;-61
2022/11/28 07:23:49;;;;;;;1.15;0.57;;;;;;;19.54;84.28;98808.38;7393720;19;20369;-61
2022/11/28 07:26:17;;;;;;;1.23;0.35;;;;;;;19.58;84.61;98803.09;7393773;19;20018;-62
2022/11/28 07:28:45;;;;;;;11.80;0.40;;;;;;;19.89;83.90;98806.72;7394009;19;20018;-62
2022/11/28 07:31:13;;;;;;;1.58;1.13;;;;;;;19.99;83.97;98809.72;7394755;19;20034;-62
2022/11/28 07:33:41;;;;;;;0.73;0.70;;;;;;;20.10;83.87;98810.09;7392937;19;20025;-62
2022/11/28 07:36:14;;;;;;;3.42;0.77;;;;;;;19.79;85.16;98813.50;7393802;19;20011;-61
2022/11/28 07:38:40;;;;;;;1.52;1.13;;;;;;;19.79;85.02;98819.13;7392335;19;20019;-62
2022/11/28 07:41:08;;;;;;;0.88;0.77;;;;;;;19.87;84.29;98820.66;7394329;19;20082;-62
2022/11/28 07:43:34;;;;;;;8.35;0.80;;;;;;;19.97;84.35;98823.66;7390980;19;20078;-62
2022/11/28 07:46:11;;;;;;;0.57;0.55;;;;;;;19.68;85.35;98826.66;7397735;19;20011;-62
2022/11/28 07:48:37;;;;;;;1.30;1.20;;;;;;;19.93;84.16;98831.75;7393449;19;20010;-62
2022/11/28 07:51:15;;;;;;;3.88;0.90;;;;;;;19.70;85.19;98839.47;7393646;19;20010;-61
2022/11/28 07:53:42;;;;;;;6.35;0.82;;;;;;;19.61;85.67;98837.94;7393061;19;20011;-62
2022/11/28 07:56:13;;;;;;;0.45;0.32;;;;;;;19.43;85.90;98834.16;7392782;19;20021;-61
2022/11/28 07:58:42;;;;;;;2.35;1.13;;;;;;;19.19;87.24;98837.44;7391472;19;20010;-62
2022/11/28 08:01:16;;;;;;;0.38;0.38;;;;;;;20.01;84.60;98841.75;7393812;19;20499;-62
2022/11/28 08:03:43;;;;;;;0.63;0.60;;;;;;;16.37;96.50;98839.50;7392485;19;20059;-62
2022/11/28 08:06:10;;;;;;;2.95;1.15;;;;;;;15.53;100.00;98849.91;7392907;19;20023;-61
2022/11/28 08:08:36;;;;;;;3.08;0.75;;;;;;;15.70;100.00;98842.72;7395503;19;20021;-62
2022/11/28 08:11:05;;;;;;;14.13;2.10;;;;;;;14.99;100.00;98845.31;7392506;19;20039;-61
2022/11/28 08:13:31;;;;;;;6.03;0.70;;;;;;;15.78;100.00;98837.25;7392176;19;20011;-61
2022/11/28 08:15:57;;;;;;;1.15;0.60;;;;;;;16.61;100.00;98844.94;7395719;19;20014;-61
2022/11/28 08:18:23;;;;;;;0.40;0.40;;;;;;;17.96;100.00;98832.94;7392115;19;20019;-62
2022/11/28 08:20:50;;;;;;;3.40;1.58;;;;;;;19.16;95.47;98841.38;7392676;19;20042;-61
2022/11/28 08:23:16;;;;;;;0.63;0.45;;;;;;;19.46;92.82;98835.84;7392077;19;20036;-62
2022/11/28 08:25:42;;;;;;;1.17;0.68;;;;;;;19.15;94.50;98831.41;7391452;19;20014;-61
2022/11/28 08:28:08;;;;;;;0.95;0.82;;;;;;;18.51;95.25;98839.94;7391940;19;20007;-61
2022/11/28 08:30:34;;;;;;;17.17;1.45;;;;;;;18.32;96.50;98838.66;7391569;19;20022;-61
2022/11/28 08:33:00;;;;;;;2.22;0.80;;;;;;;18.42;96.77;98829.16;7388549;19;20021;-61
2022/11/28 08:35:26;;;;;;;1.40;0.38;;;;;;;15.22;100.00;98842.97;7391372;19;20019;-61
2022/11/28 08:37:52;;;;;;;3.00;0.77;;;;;;;16.66;100.00;98838.44;7391244;19;20336;-62
2022/11/28 08:40:18;;;;;;;0.45;0.40;;;;;;;16.80;100.00;98838.44;7389491;19;20010;-61
2022/11/28 08:42:44;;;;;;;10.60;0.77;;;;;;;16.43;100.00;98845.03;7395797;19;20006;-61
2022/11/28 08:45:11;;;;;;;0.85;0.65;;;;;;;17.35;100.00;98845.66;7393829;19;20011;-61
2022/11/28 08:47:37;;;;;;;1.13;0.85;;;;;;;17.37;100.00;98841.00;7390399;19;20057;-61
2022/11/28 08:50:03;;;;;;;3.13;0.90;;;;;;;18.26;99.15;98840.88;7389665;19;20015;-61
2022/11/28 08:52:29;;;;;;;3.05;0.80;;;;;;;18.69;96.24;98835.34;7394058;19;20332;-61
2022/11/28 08:54:55;;;;;;;1.13;0.95;;;;;;;19.17;93.94;98840.06;7391014;19;20007;-61
2022/11/28 08:57:22;;;;;;;1.58;0.75;;;;;;;18.52;95.60;98843.50;7390598;19;20007;-61
2022/11/28 08:59:48;;;;;;;3.25;1.60;;;;;;;19.17;93.44;98834.41;7389835;19;20003;-62
2022/11/28 09:02:14;;;;;;;5.47;1.48;;;;;;;19.56;91.47;98836.81;7393606;19;20483;-62
2022/11/28 09:04:40;;;;;;;3.30;1.40;;;;;;;19.35;91.96;98833.38;7390444;19;20036;-62
2022/11/28 09:07:06;;;;;;;3.35;1.08;;;;;;;18.20;95.86;98841.00;7389414;19;20006;-62
2022/11/28 09:09:32;;;;;;;0.13;0.13;;;;;;;19.04;93.69;98834.56;7389950;19;20018;-62
2022/11/28 09:11:58;;;;;;;0.60;0.60;;;;;;;18.27;97.32;98837.50;7392339;19;20035;-62
2022/11/28 09:14:26;;;;;;;0.50;0.30;;;;;;;18.73;94.64;98841.38;7391386;19;20015;-62
2022/11/28 09:16:52;;;;;;;0.52;0.40;;;;;;;18.38;96.29;98850.53;7387831;19;20036;-62
2022/11/28 09:19:18;;;;;;;6.53;0.77;;;;;;;18.70;95.02;98848.13;7389598;19;20014;-62
2022/11/28 09:21:44;;;;;;;1.75;0.63;;;;;;;18.92;94.36;98853.91;7392323;19;20014;-62
2022/11/28 09:24:12;;;;;;;1.40;1.08;;;;;;;19.72;90.25;98848.91;7387815;19;20337;-62
2022/11/28 09:26:38;;;;;;;0.47;0.47;;;;;;;12.37;100.00;98872.28;7389143;19;20039;-62
2022/11/28 09:29:05;;;;;;;3.25;1.02;;;;;;;14.32;100.00;98872.59;7390167;19;20014;-62
2022/11/28 09:31:31;;;;;;;1.58;0.47;;;;;;;19.00;100.00;98868.03;7391269;19;20039;-62
2022/11/28 09:33:57;;;;;;;0.88;0.22;;;;;;;19.33;95.70;98867.03;7389169;19;20333;-62
2022/11/28 09:36:24;;;;;;;2.35;0.70;;;;;;;20.22;92.71;98867.03;7389791;19;20460;-62
2022/11/28 09:38:50;;;;;;;0.63;0.35;;;;;;;13.48;100.00;98883.72;7389543;19;20011;-62
2022/11/28 09:41:16;;;;;;;11.40;1.05;;;;;;;9.12;100.00;98901.75;7391060;19;20015;-62
2022/11/28 09:43:44;;;;;;;3.10;0.40;;;;;;;8.27;100.00;98897.66;7389225;19;20006;-62
2022/11/28 09:46:24;;;;;;;3.90;0.32;;;;;;;8.34;100.00;98902.81;7387689;19;20011;-62
2022/11/28 09:48:55;;;;;;;0.82;0.35;;;;;;;8.26;100.00;98900.94;7388793;19;20021;-61
2022/11/28 09:51:35;;;;;;;0.60;0.47;;;;;;;7.78;100.00;98894.88;7391045;19;20015;-62
2022/11/28 09:54:26;;;;;;;0.17;0.17;;;;;;;7.87;100.00;98896.78;7390158;19;20023;-61
2022/11/28 09:56:52;;;;;;;0.28;0.28;;;;;;;7.76;100.00;98896.59;7388854;19;20036;-62
2022/11/28 09:59:21;;;;;;;1.23;0.40;;;;;;;7.47;100.00;98903.69;7389005;19;20473;-61
2022/11/28 10:01:59;;;;;;;1.17;0.63;;;;;;;11.26;100.00;98905.72;7391614;19;20023;-62
2022/11/28 10:04:56;;;;;;;9.65;0.85;;;;;;;8.09;100.00;98908.97;7388252;19;20049;-61
2022/11/28 10:07:42;;;;;;;0.95;0.45;;;;;;;12.24;100.00;98913.91;7392454;19;20022;-62
2022/11/28 10:10:54;;;;;;;6.88;1.10;;;;;;;11.29;100.00;98915.09;7395837;19;20024;-61
2022/11/28 10:13:29;;;;;;;;;;;;;;;9.39;100.00;98916.44;7392039;19;20022;-61
2022/11/28 10:16:02;;;;;;;1.33;1.23;;;;;;;11.78;100.00;98908.88;7397594;19;19919;-62
2022/11/28 10:18:42;;;;;;;0.40;0.35;;;;;;;16.74;100.00;98914.44;7392954;19;20010;-62
2022/11/28 10:21:31;;;;;;;0.10;0.10;;;;;;;18.38;100.00;98912.56;7394342;19;20011;-62
2022/11/28 10:24:33;;;;;;;2.35;0.75;;;;;;;16.94;100.00;98925.06;7392421;19;20607;-62
2022/11/28 10:27:03;;;;;;;3.00;0.30;;;;;;;11.40;100.00;98937.44;7393201;19;20365;-61
2022/11/28 10:29:51;;;;;;;0.10;0.10;;;;;;;11.49;100.00;98934.41;7393323;19;20035;-62
2022/11/28 10:32:20;;;;;;;7.95;0.60;;;;;;;8.62;100.00;98936.47;7396207;19;20014;-62
2022/11/28 10:34:55;;;;;;;2.25;0.22;;;;;;;14.15;100.00;98939.94;7394993;19;20017;-62
2022/11/28 10:37:24;;;;;;;0.73;0.30;;;;;;;16.99;100.00;98945.94;7395944;19;20024;-62
2022/11/28 10:39:51;;;;;;;3.72;0.90;;;;;;;17.23;100.00;98940.06;7394057;19;20038;-62
2022/11/28 10:42:23;;;;;;;2.80;0.88;;;;;;;13.86;100.00;98956.72;7398320;19;20014;-62
2022/11/28 10:45:02;;;;;;;0.73;0.60;;;;;;;16.67;100.00;98952.41;7394325;19;20019;-62
2022/11/28 10:47:47;;;;;;;0.93;0.30;;;;;;;15.61;100.00;98958.22;7394650;19;20019;-62
2022/11/28 10:50:34;;;;;;;1.98;1.52;;;;;;;17.90;100.00;98959.84;7394004;19;20033;-62
2022/11/28 10:53:22;;;;;;;1.55;0.73;;;;;;;18.67;100.00;98967.69;7391797;19;20010;-62
2022/11/28 10:56:05;;;;;;;6.43;1.50;;;;;;;19.41;100.00;98972.31;7394437;19;20014;-61
2022/11/28 10:59:08;;;;;;;3.70;0.20;;;;;;;18.44;100.00;98978.00;7392469;19;20490;-62
2022/11/28 11:01:38;;;;;;;0.20;0.20;;;;;;;19.01;99.97;98973.97;7396618;19;20014;-62
2022/11/28 11:04:07;;;;;;;13.20;1.80;;;;;;;18.23;100.00;98980.09;7394645;19;20045;-62
2022/11/28 11:06:36;;;;;;;9.43;1.10;;;;;;;18.84;100.00;98982.13;7392877;19;20042;-61
2022/11/28 11:09:03;;;;;;;1.35;0.82;;;;;;;17.94;100.00;98984.84;7393250;19;20127;-62
2022/11/28 11:11:35;;;;;;;1.10;0.75;;;;;;;18.87;100.00;98981.78;7395269;19;20014;-62
2022/11/28 11:14:08;;;;;;;1.20;1.00;;;;;;;18.67;100.00;98978.97;7396231;19;20066;-62
2022/11/28 11:16:55;;;;;;;1.45;0.80;;;;;;;17.23;100.00;98976.66;7394649;19;20487;-61
2022/11/28 11:19:38;;;;;;;0.90;0.50;;;;;;;13.41;100.00;98990.56;7394819;19;20039;-62
2022/11/28 11:22:22;;;;;;;0.10;0.10;;;;;;;13.04;100.00;98995.03;7396985;19;20403;-62
2022/11/28 11:25:19;;;;;;;3.92;1.17;;;;;;;18.73;100.00;98982.44;7393454;19;20014;-62
2022/11/28 11:27:54;;;;;;;1.80;0.82;;;;;;;19.14;100.00;98976.69;7392020;19;20011;-62
2022/11/28 11:30:34;;;;;;;1.55;0.90;;;;;;;19.00;98.76;98974.50;7394377;19;20372;-62
2022/11/28 11:33:02;;;;;;;1.17;0.52;;;;;;;19.26;99.13;98980.69;7391932;19;20511;-62
2022/11/28 11:35:34;;;;;;;6.03;1.50;;;;;;;19.52;97.77;98980.47;7390007;19;20337;-61
2022/11/28 11:38:21;;;;;;;0.40;0.40;;;;;;;19.62;95.63;98975.78;7390345;19;20468;-62
2022/11/28 11:40:50;;;;;;;1.20;1.02;;;;;;;20.29;91.52;98974.47;7393020;19;20006;-62
2022/11/28 11:43:35;;;;;;;5.65;1.17;;;;;;;20.97;89.69;98968.81;7392607;19;20027;-62
2022/11/28 11:46:14;;;;;;;6.25;1.45;;;;;;;20.51;89.55;98967.31;7396662;19;20016;-62
2022/11/28 11:48:46;;;;;;;1.20;1.08;;;;;;;20.51;89.47;98972.97;7392513;19;20090;-61
2022/11/28 11:51:28;;;;;;;0.35;0.35;;;;;;;20.41;89.20;98969.22;7393194;19;20018;-62
2022/11/28 11:54:18;;;;;;;1.15;0.63;;;;;;;19.95;90.21;98978.91;7392925;19;20010;-62
2022/11/28 11:56:47;;;;;;;2.03;0.35;;;;;;;20.46;88.00;98976.75;7391279;19;20006;-62